sensor_id;sensor_type;location;lat;lon;timestamp;P1;durP1;ratioP1;P2;durP2;ratioP2
11111;SDS011;5609;49.466;8.468;2024-02-28T00:01:59;16.00;;;13.80;;
11111;SDS011;5609;49.466;8.468;2024-02-28T00:04:27;16.07;;;14.10;;
11111;SDS011;5609;49.466;8.468;2024-02-28T00:06:53;16.03;;;14.17;;
11111;SDS011;5609;49.466;8.468;2024-02-28T00:09:20;22.23;;;16.30;;
11111;SDS011;5609;49.466;8.468;2024-02-28T00:11:47;16.60;;;14.43;;
11111;SDS011;5609;49.466;8.468;2024-02-28T00:14:14;15.87;;;13.63;;
11111;SDS011;5609;49.466;8.468;2024-02-28T00:16:40;16.40;;;14.77;;
11111;SDS011;5609;49.466;8.468;2024-02-28T00:19:08;18.43;;;15.10;;
11111;SDS011;5609;49.466;8.468;2024-02-28T00:21:37;20.23;;;16.17;;
11111;SDS011;5609;49.466;8.468;2024-02-28T00:24:05;15.47;;;13.87;;
11111;SDS011;5609;49.466;8.468;2024-02-28T00:26:32;19.30;;;15.57;;
11111;SDS011;5609;49.466;8.468;2024-02-28T00:28:58;20.40;;;16.67;;
11111;SDS011;5609;49.466;8.468;2024-02-28T00:31:25;20.33;;;15.73;;
11111;SDS011;5609;49.466;8.468;2024-02-28T00:33:52;19.93;;;16.60;;
11111;SDS011;5609;49.466;8.468;2024-02-28T00:36:18;17.73;;;15.70;;
11111;SDS011;5609;49.466;8.468;2024-02-28T00:38:46;17.30;;;15.50;;
11111;SDS011;5609;49.466;8.468;2024-02-28T00:41:13;27.07;;;19.43;;
11111;SDS011;5609;49.466;8.468;2024-02-28T00:43:39;18.60;;;16.03;;
11111;SDS011;5609;49.466;8.468;2024-02-28T00:46:06;19.07;;;16.03;;
11111;SDS011;5609;49.466;8.468;2024-02-28T00:48:36;23.50;;;18.80;;
11111;SDS011;5609;49.466;8.468;2024-02-28T00:51:03;20.40;;;16.40;;
11111;SDS011;5609;49.466;8.468;2024-02-28T00:53:29;21.17;;;17.20;;
11111;SDS011;5609;49.466;8.468;2024-02-28T00:55:57;18.07;;;16.10;;
11111;SDS011;5609;49.466;8.468;2024-02-28T00:58:24;18.50;;;16.03;;
11111;SDS011;5609;49.466;8.468;2024-02-28T01:00:52;21.90;;;18.43;;
11111;SDS011;5609;49.466;8.468;2024-02-28T01:03:19;20.40;;;17.67;;
11111;SDS011;5609;49.466;8.468;2024-02-28T01:05:46;19.90;;;17.43;;
11111;SDS011;5609;49.466;8.468;2024-02-28T01:08:14;19.57;;;17.00;;
11111;SDS011;5609;49.466;8.468;2024-02-28T01:10:42;23.63;;;18.03;;
11111;SDS011;5609;49.466;8.468;2024-02-28T01:13:10;21.03;;;17.57;;
11111;SDS011;5609;49.466;8.468;2024-02-28T01:15:37;22.30;;;18.40;;
11111;SDS011;5609;49.466;8.468;2024-02-28T01:18:05;21.37;;;18.50;;
11111;SDS011;5609;49.466;8.468;2024-02-28T01:20:31;23.23;;;18.57;;
11111;SDS011;5609;49.466;8.468;2024-02-28T01:22:58;20.53;;;18.33;;
11111;SDS011;5609;49.466;8.468;2024-02-28T01:25:25;22.20;;;18.73;;
11111;SDS011;5609;49.466;8.468;2024-02-28T01:27:51;26.27;;;19.53;;
11111;SDS011;5609;49.466;8.468;2024-02-28T01:30:19;23.83;;;19.10;;
11111;SDS011;5609;49.466;8.468;2024-02-28T01:32:46;21.83;;;18.17;;
11111;SDS011;5609;49.466;8.468;2024-02-28T01:35:13;20.70;;;18.33;;
11111;SDS011;5609;49.466;8.468;2024-02-28T01:37:39;22.97;;;19.20;;
11111;SDS011;5609;49.466;8.468;2024-02-28T01:40:07;24.67;;;19.73;;
11111;SDS011;5609;49.466;8.468;2024-02-28T01:42:34;24.33;;;20.37;;
11111;SDS011;5609;49.466;8.468;2024-02-28T01:45:02;26.80;;;21.03;;
11111;SDS011;5609;49.466;8.468;2024-02-28T01:47:30;22.43;;;19.97;;
11111;SDS011;5609;49.466;8.468;2024-02-28T01:49:57;21.87;;;18.87;;
11111;SDS011;5609;49.466;8.468;2024-02-28T01:52:24;27.30;;;21.57;;
11111;SDS011;5609;49.466;8.468;2024-02-28T01:54:51;23.43;;;20.20;;
11111;SDS011;5609;49.466;8.468;2024-02-28T01:57:17;24.80;;;20.27;;
11111;SDS011;5609;49.466;8.468;2024-02-28T01:59:44;28.67;;;23.07;;
11111;SDS011;5609;49.466;8.468;2024-02-28T02:02:12;22.80;;;19.70;;
11111;SDS011;5609;49.466;8.468;2024-02-28T02:04:40;26.67;;;22.27;;
11111;SDS011;5609;49.466;8.468;2024-02-28T02:07:06;27.43;;;21.57;;
11111;SDS011;5609;49.466;8.468;2024-02-28T02:09:34;27.13;;;21.73;;
11111;SDS011;5609;49.466;8.468;2024-02-28T02:12:00;30.50;;;23.30;;
11111;SDS011;5609;49.466;8.468;2024-02-28T02:14:28;27.03;;;21.97;;
11111;SDS011;5609;49.466;8.468;2024-02-28T02:16:54;26.27;;;22.23;;
11111;SDS011;5609;49.466;8.468;2024-02-28T02:19:21;26.50;;;22.17;;
11111;SDS011;5609;49.466;8.468;2024-02-28T02:21:53;27.23;;;21.93;;
11111;SDS011;5609;49.466;8.468;2024-02-28T02:24:24;27.97;;;22.80;;
11111;SDS011;5609;49.466;8.468;2024-02-28T02:26:54;28.10;;;22.67;;
11111;SDS011;5609;49.466;8.468;2024-02-28T02:29:21;28.63;;;22.50;;
11111;SDS011;5609;49.466;8.468;2024-02-28T02:31:48;26.97;;;23.37;;
11111;SDS011;5609;49.466;8.468;2024-02-28T02:34:14;24.40;;;21.17;;
11111;SDS011;5609;49.466;8.468;2024-02-28T02:36:41;29.73;;;23.53;;
11111;SDS011;5609;49.466;8.468;2024-02-28T02:39:07;30.90;;;23.83;;
11111;SDS011;5609;49.466;8.468;2024-02-28T02:41:35;30.23;;;23.53;;
11111;SDS011;5609;49.466;8.468;2024-02-28T02:44:02;30.03;;;23.57;;
11111;SDS011;5609;49.466;8.468;2024-02-28T02:46:29;29.33;;;23.67;;
11111;SDS011;5609;49.466;8.468;2024-02-28T02:48:55;30.47;;;23.97;;
11111;SDS011;5609;49.466;8.468;2024-02-28T02:51:22;28.63;;;23.47;;
11111;SDS011;5609;49.466;8.468;2024-02-28T02:53:49;29.50;;;23.57;;
11111;SDS011;5609;49.466;8.468;2024-02-28T02:56:15;27.77;;;23.63;;
11111;SDS011;5609;49.466;8.468;2024-02-28T02:58:43;28.17;;;23.50;;
11111;SDS011;5609;49.466;8.468;2024-02-28T03:01:10;28.50;;;23.60;;
11111;SDS011;5609;49.466;8.468;2024-02-28T03:03:36;29.77;;;24.00;;
11111;SDS011;5609;49.466;8.468;2024-02-28T03:06:03;28.00;;;22.80;;
11111;SDS011;5609;49.466;8.468;2024-02-28T03:08:30;27.63;;;21.97;;
11111;SDS011;5609;49.466;8.468;2024-02-28T03:10:57;29.60;;;23.70;;
11111;SDS011;5609;49.466;8.468;2024-02-28T03:13:24;29.77;;;23.23;;
11111;SDS011;5609;49.466;8.468;2024-02-28T03:15:52;28.17;;;22.60;;
11111;SDS011;5609;49.466;8.468;2024-02-28T03:18:18;27.10;;;22.40;;
11111;SDS011;5609;49.466;8.468;2024-02-28T03:20:45;26.63;;;21.93;;
11111;SDS011;5609;49.466;8.468;2024-02-28T03:23:12;25.77;;;21.47;;
11111;SDS011;5609;49.466;8.468;2024-02-28T03:25:38;27.80;;;22.87;;
11111;SDS011;5609;49.466;8.468;2024-02-28T03:28:05;28.20;;;23.80;;
11111;SDS011;5609;49.466;8.468;2024-02-28T03:30:32;31.90;;;23.73;;
11111;SDS011;5609;49.466;8.468;2024-02-28T03:32:59;26.50;;;22.77;;
11111;SDS011;5609;49.466;8.468;2024-02-28T03:35:26;29.97;;;23.40;;
11111;SDS011;5609;49.466;8.468;2024-02-28T03:37:53;31.10;;;23.53;;
11111;SDS011;5609;49.466;8.468;2024-02-28T03:40:20;27.60;;;23.03;;
11111;SDS011;5609;49.466;8.468;2024-02-28T03:42:47;29.17;;;23.37;;
11111;SDS011;5609;49.466;8.468;2024-02-28T03:45:14;26.83;;;22.63;;
11111;SDS011;5609;49.466;8.468;2024-02-28T03:47:40;29.13;;;23.53;;
11111;SDS011;5609;49.466;8.468;2024-02-28T03:50:09;30.70;;;23.47;;
11111;SDS011;5609;49.466;8.468;2024-02-28T03:52:36;30.73;;;23.00;;
11111;SDS011;5609;49.466;8.468;2024-02-28T03:55:03;29.43;;;23.53;;
11111;SDS011;5609;49.466;8.468;2024-02-28T03:57:29;30.33;;;24.17;;
11111;SDS011;5609;49.466;8.468;2024-02-28T03:59:56;27.67;;;23.03;;
11111;SDS011;5609;49.466;8.468;2024-02-28T04:02:23;30.27;;;23.23;;
11111;SDS011;5609;49.466;8.468;2024-02-28T04:04:50;30.93;;;23.20;;
11111;SDS011;5609;49.466;8.468;2024-02-28T04:07:18;30.30;;;23.70;;
11111;SDS011;5609;49.466;8.468;2024-02-28T04:09:44;30.10;;;23.97;;
11111;SDS011;5609;49.466;8.468;2024-02-28T04:12:11;29.53;;;23.53;;
11111;SDS011;5609;49.466;8.468;2024-02-28T04:14:38;30.27;;;24.50;;
11111;SDS011;5609;49.466;8.468;2024-02-28T04:17:05;33.40;;;24.93;;
11111;SDS011;5609;49.466;8.468;2024-02-28T04:19:32;33.73;;;25.43;;
11111;SDS011;5609;49.466;8.468;2024-02-28T04:22:01;29.70;;;23.90;;
11111;SDS011;5609;49.466;8.468;2024-02-28T04:24:29;31.27;;;23.87;;
11111;SDS011;5609;49.466;8.468;2024-02-28T04:26:56;30.17;;;23.53;;
11111;SDS011;5609;49.466;8.468;2024-02-28T04:29:24;28.87;;;23.03;;
11111;SDS011;5609;49.466;8.468;2024-02-28T04:31:51;30.60;;;24.57;;
11111;SDS011;5609;49.466;8.468;2024-02-28T04:34:17;33.10;;;25.07;;
11111;SDS011;5609;49.466;8.468;2024-02-28T04:36:44;30.47;;;24.47;;
11111;SDS011;5609;49.466;8.468;2024-02-28T04:39:10;29.97;;;24.17;;
11111;SDS011;5609;49.466;8.468;2024-02-28T04:41:38;35.03;;;26.13;;
11111;SDS011;5609;49.466;8.468;2024-02-28T04:44:05;31.83;;;26.30;;
11111;SDS011;5609;49.466;8.468;2024-02-28T04:46:32;31.80;;;24.60;;
11111;SDS011;5609;49.466;8.468;2024-02-28T04:48:59;33.13;;;25.23;;
11111;SDS011;5609;49.466;8.468;2024-02-28T04:51:26;31.50;;;24.43;;
11111;SDS011;5609;49.466;8.468;2024-02-28T04:53:52;30.10;;;24.00;;
11111;SDS011;5609;49.466;8.468;2024-02-28T04:56:19;33.53;;;25.07;;
11111;SDS011;5609;49.466;8.468;2024-02-28T04:58:47;32.97;;;24.87;;
11111;SDS011;5609;49.466;8.468;2024-02-28T05:01:13;29.97;;;24.13;;
11111;SDS011;5609;49.466;8.468;2024-02-28T05:03:40;30.20;;;24.23;;
11111;SDS011;5609;49.466;8.468;2024-02-28T05:06:07;31.10;;;24.50;;
11111;SDS011;5609;49.466;8.468;2024-02-28T05:08:36;31.80;;;24.70;;
11111;SDS011;5609;49.466;8.468;2024-02-28T05:11:03;32.63;;;25.30;;
11111;SDS011;5609;49.466;8.468;2024-02-28T05:13:30;30.60;;;24.50;;
11111;SDS011;5609;49.466;8.468;2024-02-28T05:15:57;35.30;;;26.53;;
11111;SDS011;5609;49.466;8.468;2024-02-28T05:18:24;32.73;;;24.43;;
11111;SDS011;5609;49.466;8.468;2024-02-28T05:20:51;30.57;;;24.63;;
11111;SDS011;5609;49.466;8.468;2024-02-28T05:23:17;33.80;;;25.53;;
11111;SDS011;5609;49.466;8.468;2024-02-28T05:25:45;32.23;;;25.33;;
11111;SDS011;5609;49.466;8.468;2024-02-28T05:28:12;34.63;;;25.63;;
11111;SDS011;5609;49.466;8.468;2024-02-28T05:30:38;35.00;;;26.10;;
11111;SDS011;5609;49.466;8.468;2024-02-28T05:33:07;33.27;;;26.23;;
11111;SDS011;5609;49.466;8.468;2024-02-28T05:35:34;34.57;;;26.20;;
11111;SDS011;5609;49.466;8.468;2024-02-28T05:38:01;38.53;;;28.40;;
11111;SDS011;5609;49.466;8.468;2024-02-28T05:40:28;37.00;;;27.07;;
11111;SDS011;5609;49.466;8.468;2024-02-28T05:42:54;35.63;;;26.33;;
11111;SDS011;5609;49.466;8.468;2024-02-28T05:45:21;36.50;;;26.63;;
11111;SDS011;5609;49.466;8.468;2024-02-28T05:47:47;34.77;;;25.97;;
11111;SDS011;5609;49.466;8.468;2024-02-28T05:50:15;36.77;;;26.73;;
11111;SDS011;5609;49.466;8.468;2024-02-28T05:52:42;34.57;;;26.77;;
11111;SDS011;5609;49.466;8.468;2024-02-28T05:55:08;38.47;;;27.23;;
11111;SDS011;5609;49.466;8.468;2024-02-28T05:57:35;37.13;;;26.97;;
11111;SDS011;5609;49.466;8.468;2024-02-28T06:00:02;36.60;;;26.00;;
11111;SDS011;5609;49.466;8.468;2024-02-28T06:02:34;37.43;;;27.43;;
11111;SDS011;5609;49.466;8.468;2024-02-28T06:05:01;36.53;;;26.10;;
11111;SDS011;5609;49.466;8.468;2024-02-28T06:07:29;36.83;;;26.33;;
11111;SDS011;5609;49.466;8.468;2024-02-28T06:09:56;35.70;;;26.03;;
11111;SDS011;5609;49.466;8.468;2024-02-28T06:12:23;34.87;;;26.33;;
11111;SDS011;5609;49.466;8.468;2024-02-28T06:14:49;36.03;;;27.23;;
11111;SDS011;5609;49.466;8.468;2024-02-28T06:17:16;37.43;;;26.57;;
11111;SDS011;5609;49.466;8.468;2024-02-28T06:19:43;37.03;;;26.77;;
11111;SDS011;5609;49.466;8.468;2024-02-28T06:22:09;36.17;;;26.10;;
11111;SDS011;5609;49.466;8.468;2024-02-28T06:24:37;35.90;;;26.03;;
11111;SDS011;5609;49.466;8.468;2024-02-28T06:27:04;38.40;;;27.57;;
11111;SDS011;5609;49.466;8.468;2024-02-28T06:29:31;36.13;;;26.03;;
11111;SDS011;5609;49.466;8.468;2024-02-28T06:32:00;34.37;;;24.90;;
11111;SDS011;5609;49.466;8.468;2024-02-28T06:34:27;33.50;;;25.87;;
11111;SDS011;5609;49.466;8.468;2024-02-28T06:36:54;35.67;;;26.47;;
11111;SDS011;5609;49.466;8.468;2024-02-28T06:39:20;35.47;;;26.20;;
11111;SDS011;5609;49.466;8.468;2024-02-28T06:41:48;33.70;;;25.30;;
11111;SDS011;5609;49.466;8.468;2024-02-28T06:44:17;36.43;;;27.10;;
11111;SDS011;5609;49.466;8.468;2024-02-28T06:46:44;36.33;;;26.77;;
11111;SDS011;5609;49.466;8.468;2024-02-28T06:49:11;38.23;;;28.70;;
11111;SDS011;5609;49.466;8.468;2024-02-28T06:51:37;37.33;;;27.70;;
11111;SDS011;5609;49.466;8.468;2024-02-28T06:54:04;40.43;;;28.43;;
11111;SDS011;5609;49.466;8.468;2024-02-28T06:56:31;38.27;;;26.93;;
11111;SDS011;5609;49.466;8.468;2024-02-28T06:58:59;40.00;;;27.53;;
11111;SDS011;5609;49.466;8.468;2024-02-28T07:01:26;36.67;;;26.93;;
11111;SDS011;5609;49.466;8.468;2024-02-28T07:03:52;35.57;;;26.60;;
11111;SDS011;5609;49.466;8.468;2024-02-28T07:06:19;36.23;;;27.77;;
11111;SDS011;5609;49.466;8.468;2024-02-28T07:08:45;37.60;;;27.80;;
11111;SDS011;5609;49.466;8.468;2024-02-28T07:11:15;37.30;;;27.00;;
11111;SDS011;5609;49.466;8.468;2024-02-28T07:13:42;35.23;;;27.33;;
11111;SDS011;5609;49.466;8.468;2024-02-28T07:16:10;36.93;;;26.37;;
11111;SDS011;5609;49.466;8.468;2024-02-28T07:18:36;36.03;;;26.93;;
11111;SDS011;5609;49.466;8.468;2024-02-28T07:21:03;36.70;;;26.40;;
11111;SDS011;5609;49.466;8.468;2024-02-28T07:23:31;36.77;;;27.20;;
11111;SDS011;5609;49.466;8.468;2024-02-28T07:25:58;35.90;;;26.63;;
11111;SDS011;5609;49.466;8.468;2024-02-28T07:28:25;34.77;;;26.40;;
11111;SDS011;5609;49.466;8.468;2024-02-28T07:30:51;35.37;;;26.03;;
11111;SDS011;5609;49.466;8.468;2024-02-28T07:33:19;34.97;;;27.00;;
11111;SDS011;5609;49.466;8.468;2024-02-28T07:35:46;34.63;;;26.40;;
11111;SDS011;5609;49.466;8.468;2024-02-28T07:38:13;35.23;;;26.50;;
11111;SDS011;5609;49.466;8.468;2024-02-28T07:40:41;38.90;;;28.27;;
11111;SDS011;5609;49.466;8.468;2024-02-28T07:43:07;36.30;;;27.23;;
11111;SDS011;5609;49.466;8.468;2024-02-28T07:45:34;36.17;;;26.43;;
11111;SDS011;5609;49.466;8.468;2024-02-28T07:48:01;36.90;;;28.00;;
11111;SDS011;5609;49.466;8.468;2024-02-28T07:50:29;34.40;;;26.50;;
11111;SDS011;5609;49.466;8.468;2024-02-28T07:52:55;37.57;;;26.60;;
11111;SDS011;5609;49.466;8.468;2024-02-28T07:55:22;34.13;;;26.23;;
11111;SDS011;5609;49.466;8.468;2024-02-28T07:57:50;32.70;;;25.90;;
11111;SDS011;5609;49.466;8.468;2024-02-28T08:00:17;33.10;;;24.97;;
11111;SDS011;5609;49.466;8.468;2024-02-28T08:02:44;30.63;;;24.43;;
11111;SDS011;5609;49.466;8.468;2024-02-28T08:05:11;33.03;;;24.50;;
11111;SDS011;5609;49.466;8.468;2024-02-28T08:07:40;31.70;;;23.60;;
11111;SDS011;5609;49.466;8.468;2024-02-28T08:10:07;30.87;;;23.87;;
11111;SDS011;5609;49.466;8.468;2024-02-28T08:12:35;29.73;;;23.97;;
11111;SDS011;5609;49.466;8.468;2024-02-28T08:15:01;29.33;;;22.83;;
11111;SDS011;5609;49.466;8.468;2024-02-28T08:17:28;27.63;;;22.63;;
11111;SDS011;5609;49.466;8.468;2024-02-28T08:19:55;28.67;;;23.90;;
11111;SDS011;5609;49.466;8.468;2024-02-28T08:22:21;27.97;;;22.80;;
11111;SDS011;5609;49.466;8.468;2024-02-28T08:24:52;30.50;;;23.63;;
11111;SDS011;5609;49.466;8.468;2024-02-28T08:27:18;29.90;;;24.33;;
11111;SDS011;5609;49.466;8.468;2024-02-28T08:29:45;28.97;;;23.43;;
11111;SDS011;5609;49.466;8.468;2024-02-28T08:32:12;31.30;;;24.20;;
11111;SDS011;5609;49.466;8.468;2024-02-28T08:34:39;30.33;;;24.03;;
11111;SDS011;5609;49.466;8.468;2024-02-28T08:37:09;31.23;;;25.03;;
11111;SDS011;5609;49.466;8.468;2024-02-28T08:39:35;31.40;;;24.30;;
11111;SDS011;5609;49.466;8.468;2024-02-28T08:42:04;31.57;;;24.70;;
11111;SDS011;5609;49.466;8.468;2024-02-28T08:44:31;36.73;;;25.17;;
11111;SDS011;5609;49.466;8.468;2024-02-28T08:46:58;32.60;;;25.63;;
11111;SDS011;5609;49.466;8.468;2024-02-28T08:49:24;30.53;;;24.43;;
11111;SDS011;5609;49.466;8.468;2024-02-28T08:51:51;35.70;;;26.97;;
11111;SDS011;5609;49.466;8.468;2024-02-28T08:54:18;33.37;;;25.77;;
11111;SDS011;5609;49.466;8.468;2024-02-28T08:56:44;32.33;;;25.20;;
11111;SDS011;5609;49.466;8.468;2024-02-28T08:59:13;30.13;;;24.07;;
11111;SDS011;5609;49.466;8.468;2024-02-28T09:01:39;33.70;;;24.93;;
11111;SDS011;5609;49.466;8.468;2024-02-28T09:04:07;30.70;;;23.53;;
11111;SDS011;5609;49.466;8.468;2024-02-28T09:06:33;32.47;;;25.10;;
11111;SDS011;5609;49.466;8.468;2024-02-28T09:09:00;31.13;;;24.07;;
11111;SDS011;5609;49.466;8.468;2024-02-28T09:11:26;30.97;;;24.70;;
11111;SDS011;5609;49.466;8.468;2024-02-28T09:13:53;32.50;;;24.33;;
11111;SDS011;5609;49.466;8.468;2024-02-28T09:16:21;30.70;;;23.60;;
11111;SDS011;5609;49.466;8.468;2024-02-28T09:18:47;32.03;;;24.57;;
11111;SDS011;5609;49.466;8.468;2024-02-28T09:21:14;31.13;;;23.87;;
11111;SDS011;5609;49.466;8.468;2024-02-28T09:23:41;29.50;;;23.50;;
11111;SDS011;5609;49.466;8.468;2024-02-28T09:26:08;29.70;;;24.40;;
11111;SDS011;5609;49.466;8.468;2024-02-28T09:28:35;32.83;;;24.97;;
11111;SDS011;5609;49.466;8.468;2024-02-28T09:31:02;31.37;;;24.93;;
11111;SDS011;5609;49.466;8.468;2024-02-28T09:33:30;32.50;;;24.80;;
11111;SDS011;5609;49.466;8.468;2024-02-28T09:35:57;34.77;;;25.23;;
11111;SDS011;5609;49.466;8.468;2024-02-28T09:38:23;30.80;;;24.70;;
11111;SDS011;5609;49.466;8.468;2024-02-28T09:40:50;29.43;;;24.47;;
11111;SDS011;5609;49.466;8.468;2024-02-28T09:43:19;30.70;;;23.67;;
11111;SDS011;5609;49.466;8.468;2024-02-28T09:45:50;31.80;;;24.97;;
11111;SDS011;5609;49.466;8.468;2024-02-28T09:48:17;29.83;;;23.60;;
11111;SDS011;5609;49.466;8.468;2024-02-28T09:50:46;29.80;;;23.60;;
11111;SDS011;5609;49.466;8.468;2024-02-28T09:53:13;29.47;;;23.90;;
11111;SDS011;5609;49.466;8.468;2024-02-28T09:55:40;28.53;;;22.90;;
11111;SDS011;5609;49.466;8.468;2024-02-28T09:58:07;27.33;;;22.77;;
11111;SDS011;5609;49.466;8.468;2024-02-28T10:00:34;28.63;;;22.67;;
11111;SDS011;5609;49.466;8.468;2024-02-28T10:03:02;25.83;;;21.40;;
11111;SDS011;5609;49.466;8.468;2024-02-28T10:05:30;29.83;;;23.17;;
11111;SDS011;5609;49.466;8.468;2024-02-28T10:08:00;28.30;;;22.87;;
11111;SDS011;5609;49.466;8.468;2024-02-28T10:10:28;28.70;;;22.17;;
11111;SDS011;5609;49.466;8.468;2024-02-28T10:12:54;25.90;;;21.57;;
11111;SDS011;5609;49.466;8.468;2024-02-28T10:15:21;30.10;;;23.03;;
11111;SDS011;5609;49.466;8.468;2024-02-28T10:17:48;32.00;;;23.63;;
11111;SDS011;5609;49.466;8.468;2024-02-28T10:20:15;28.53;;;22.60;;
11111;SDS011;5609;49.466;8.468;2024-02-28T10:22:41;29.83;;;22.50;;
11111;SDS011;5609;49.466;8.468;2024-02-28T10:25:09;28.60;;;22.67;;
11111;SDS011;5609;49.466;8.468;2024-02-28T10:27:36;26.10;;;22.40;;
11111;SDS011;5609;49.466;8.468;2024-02-28T10:30:03;29.20;;;23.20;;
11111;SDS011;5609;49.466;8.468;2024-02-28T10:32:30;26.80;;;21.60;;
11111;SDS011;5609;49.466;8.468;2024-02-28T10:34:58;28.93;;;22.87;;
11111;SDS011;5609;49.466;8.468;2024-02-28T10:37:26;27.87;;;22.00;;
11111;SDS011;5609;49.466;8.468;2024-02-28T10:39:55;26.67;;;22.53;;
11111;SDS011;5609;49.466;8.468;2024-02-28T10:42:25;28.20;;;23.00;;
11111;SDS011;5609;49.466;8.468;2024-02-28T10:44:53;27.40;;;22.03;;
11111;SDS011;5609;49.466;8.468;2024-02-28T10:47:23;27.07;;;22.70;;
11111;SDS011;5609;49.466;8.468;2024-02-28T10:49:51;28.37;;;23.10;;
11111;SDS011;5609;49.466;8.468;2024-02-28T10:52:18;31.40;;;25.80;;
11111;SDS011;5609;49.466;8.468;2024-02-28T10:54:47;29.83;;;25.43;;
11111;SDS011;5609;49.466;8.468;2024-02-28T10:57:20;31.03;;;24.37;;
11111;SDS011;5609;49.466;8.468;2024-02-28T10:59:49;27.43;;;23.47;;
11111;SDS011;5609;49.466;8.468;2024-02-28T11:02:16;27.20;;;23.67;;
11111;SDS011;5609;49.466;8.468;2024-02-28T11:04:43;27.03;;;22.27;;
11111;SDS011;5609;49.466;8.468;2024-02-28T11:07:09;26.33;;;22.73;;
11111;SDS011;5609;49.466;8.468;2024-02-28T11:09:36;27.43;;;23.13;;
11111;SDS011;5609;49.466;8.468;2024-02-28T11:12:04;28.53;;;24.47;;
11111;SDS011;5609;49.466;8.468;2024-02-28T11:14:31;29.67;;;24.23;;
11111;SDS011;5609;49.466;8.468;2024-02-28T11:17:02;29.20;;;24.57;;
11111;SDS011;5609;49.466;8.468;2024-02-28T11:19:29;30.47;;;25.80;;
11111;SDS011;5609;49.466;8.468;2024-02-28T11:21:58;31.60;;;25.87;;
11111;SDS011;5609;49.466;8.468;2024-02-28T11:24:28;26.00;;;22.83;;
11111;SDS011;5609;49.466;8.468;2024-02-28T11:26:56;28.53;;;24.33;;
11111;SDS011;5609;49.466;8.468;2024-02-28T11:29:23;28.70;;;24.27;;
11111;SDS011;5609;49.466;8.468;2024-02-28T11:31:50;27.43;;;23.77;;
11111;SDS011;5609;49.466;8.468;2024-02-28T11:34:19;27.43;;;24.07;;
11111;SDS011;5609;49.466;8.468;2024-02-28T11:36:46;27.60;;;22.37;;
11111;SDS011;5609;49.466;8.468;2024-02-28T11:39:14;26.33;;;21.73;;
11111;SDS011;5609;49.466;8.468;2024-02-28T11:41:41;22.23;;;19.67;;
11111;SDS011;5609;49.466;8.468;2024-02-28T11:44:11;26.60;;;22.17;;
11111;SDS011;5609;49.466;8.468;2024-02-28T11:46:38;25.97;;;20.03;;
11111;SDS011;5609;49.466;8.468;2024-02-28T11:49:08;22.20;;;19.73;;
11111;SDS011;5609;49.466;8.468;2024-02-28T11:51:36;21.30;;;19.00;;
11111;SDS011;5609;49.466;8.468;2024-02-28T11:54:03;22.33;;;19.93;;
11111;SDS011;5609;49.466;8.468;2024-02-28T11:56:30;23.57;;;19.83;;
11111;SDS011;5609;49.466;8.468;2024-02-28T11:58:58;22.37;;;19.93;;
11111;SDS011;5609;49.466;8.468;2024-02-28T12:01:34;23.57;;;19.73;;
11111;SDS011;5609;49.466;8.468;2024-02-28T12:04:02;22.07;;;19.33;;
11111;SDS011;5609;49.466;8.468;2024-02-28T12:06:30;20.60;;;18.40;;
11111;SDS011;5609;49.466;8.468;2024-02-28T12:08:58;22.60;;;19.30;;
11111;SDS011;5609;49.466;8.468;2024-02-28T12:11:24;20.03;;;17.40;;
11111;SDS011;5609;49.466;8.468;2024-02-28T12:13:53;20.20;;;18.00;;
11111;SDS011;5609;49.466;8.468;2024-02-28T12:16:21;19.77;;;17.77;;
11111;SDS011;5609;49.466;8.468;2024-02-28T12:18:48;20.10;;;18.03;;
11111;SDS011;5609;49.466;8.468;2024-02-28T12:21:15;21.90;;;19.17;;
11111;SDS011;5609;49.466;8.468;2024-02-28T12:23:42;19.93;;;17.83;;
11111;SDS011;5609;49.466;8.468;2024-02-28T12:26:10;20.33;;;17.60;;
11111;SDS011;5609;49.466;8.468;2024-02-28T12:28:36;19.70;;;17.60;;
11111;SDS011;5609;49.466;8.468;2024-02-28T12:31:04;19.67;;;17.67;;
11111;SDS011;5609;49.466;8.468;2024-02-28T12:33:33;19.03;;;17.03;;
11111;SDS011;5609;49.466;8.468;2024-02-28T12:36:00;20.20;;;17.10;;
11111;SDS011;5609;49.466;8.468;2024-02-28T12:38:28;22.20;;;19.20;;
11111;SDS011;5609;49.466;8.468;2024-02-28T12:40:55;22.80;;;20.40;;
11111;SDS011;5609;49.466;8.468;2024-02-28T12:43:23;22.57;;;20.07;;
11111;SDS011;5609;49.466;8.468;2024-02-28T12:45:50;20.83;;;18.57;;
11111;SDS011;5609;49.466;8.468;2024-02-28T12:48:17;22.53;;;19.10;;
11111;SDS011;5609;49.466;8.468;2024-02-28T12:50:43;21.50;;;19.17;;
11111;SDS011;5609;49.466;8.468;2024-02-28T12:53:10;23.37;;;20.87;;
11111;SDS011;5609;49.466;8.468;2024-02-28T12:55:37;23.03;;;19.97;;
11111;SDS011;5609;49.466;8.468;2024-02-28T12:58:03;20.77;;;18.57;;
11111;SDS011;5609;49.466;8.468;2024-02-28T13:00:32;19.97;;;17.87;;
11111;SDS011;5609;49.466;8.468;2024-02-28T13:02:58;18.97;;;17.07;;
11111;SDS011;5609;49.466;8.468;2024-02-28T13:05:25;19.57;;;17.43;;
11111;SDS011;5609;49.466;8.468;2024-02-28T13:07:51;19.33;;;17.27;;
11111;SDS011;5609;49.466;8.468;2024-02-28T13:10:18;18.90;;;16.90;;
11111;SDS011;5609;49.466;8.468;2024-02-28T13:12:46;20.17;;;16.83;;
11111;SDS011;5609;49.466;8.468;2024-02-28T13:15:13;18.10;;;16.20;;
11111;SDS011;5609;49.466;8.468;2024-02-28T13:17:41;19.00;;;16.97;;
11111;SDS011;5609;49.466;8.468;2024-02-28T13:20:08;18.70;;;16.80;;
11111;SDS011;5609;49.466;8.468;2024-02-28T13:22:35;17.87;;;16.07;;
11111;SDS011;5609;49.466;8.468;2024-02-28T13:25:01;17.63;;;15.83;;
11111;SDS011;5609;49.466;8.468;2024-02-28T13:27:28;18.20;;;16.30;;
11111;SDS011;5609;49.466;8.468;2024-02-28T13:29:54;18.30;;;16.40;;
11111;SDS011;5609;49.466;8.468;2024-02-28T13:32:21;17.67;;;15.77;;
11111;SDS011;5609;49.466;8.468;2024-02-28T13:34:49;16.57;;;14.90;;
11111;SDS011;5609;49.466;8.468;2024-02-28T13:37:16;16.37;;;14.60;;
11111;SDS011;5609;49.466;8.468;2024-02-28T13:39:42;16.53;;;14.67;;
11111;SDS011;5609;49.466;8.468;2024-02-28T13:42:09;16.53;;;14.83;;
11111;SDS011;5609;49.466;8.468;2024-02-28T13:44:36;15.80;;;14.30;;
11111;SDS011;5609;49.466;8.468;2024-02-28T13:47:03;15.53;;;13.87;;
11111;SDS011;5609;49.466;8.468;2024-02-28T13:49:30;16.07;;;14.40;;
11111;SDS011;5609;49.466;8.468;2024-02-28T13:51:58;15.50;;;14.00;;
11111;SDS011;5609;49.466;8.468;2024-02-28T13:54:24;15.27;;;13.73;;
11111;SDS011;5609;49.466;8.468;2024-02-28T13:56:51;17.23;;;14.13;;
11111;SDS011;5609;49.466;8.468;2024-02-28T13:59:17;15.87;;;14.20;;
11111;SDS011;5609;49.466;8.468;2024-02-28T14:01:44;15.13;;;13.63;;
11111;SDS011;5609;49.466;8.468;2024-02-28T14:04:11;15.10;;;13.53;;
11111;SDS011;5609;49.466;8.468;2024-02-28T14:06:37;15.03;;;13.50;;
11111;SDS011;5609;49.466;8.468;2024-02-28T14:09:05;14.80;;;13.33;;
11111;SDS011;5609;49.466;8.468;2024-02-28T14:11:32;15.83;;;13.90;;
11111;SDS011;5609;49.466;8.468;2024-02-28T14:13:59;14.37;;;12.93;;
11111;SDS011;5609;49.466;8.468;2024-02-28T14:16:25;14.03;;;12.73;;
11111;SDS011;5609;49.466;8.468;2024-02-28T14:18:52;15.03;;;13.23;;
11111;SDS011;5609;49.466;8.468;2024-02-28T14:21:19;13.67;;;12.37;;
11111;SDS011;5609;49.466;8.468;2024-02-28T14:23:47;13.27;;;11.80;;
11111;SDS011;5609;49.466;8.468;2024-02-28T14:26:15;14.33;;;12.93;;
11111;SDS011;5609;49.466;8.468;2024-02-28T14:28:42;12.93;;;11.63;;
11111;SDS011;5609;49.466;8.468;2024-02-28T14:31:09;12.90;;;11.63;;
11111;SDS011;5609;49.466;8.468;2024-02-28T14:33:37;13.17;;;11.87;;